Time;durP1;ratioP1;P1;durP2;ratioP2;P2;SDS_P1;SDS_P2;PMS_P1;PMS_P2;Temp;Humidity;BMP_temperature;BMP_pressure;BME280_temperature;BME280_humidity;BME280_pressure;Samples;Min_cycle;Max_cycle;Signal;HPM_P1;HPM_P2
2021/03/26 00:01:46;;;;;;;74.50;41.43;;;;;;;6.55;100.00;101301.06;4977211;28;20702;-69
2021/03/26 00:04:12;;;;;;;84.47;40.83;;;;;;;6.46;100.00;101300.81;5011295;28;20201;-69
2021/03/26 00:06:46;;;;;;;76.47;39.77;;;;;;;6.35;100.00;101298.91;5010503;28;20225;-70
2021/03/26 00:09:36;;;;;;;71.50;39.10;;;;;;;6.29;100.00;101297.94;5011014;28;20177;-68
2021/03/26 00:12:11;;;;;;;73.63;38.80;;;;;;;6.27;100.00;101296.53;4997873;28;20255;-69
2021/03/26 00:14:37;;;;;;;77.47;38.27;;;;;;;6.20;100.00;101290.41;4995618;28;20180;-69
2021/03/26 00:17:08;;;;;;;74.73;39.13;;;;;;;6.15;100.00;101287.56;5011239;28;20690;-69
2021/03/26 00:19:33;;;;;;;75.47;39.43;;;;;;;6.15;100.00;101288.41;5012055;28;20548;-69
2021/03/26 00:22:02;;;;;;;79.03;37.57;;;;;;;6.07;100.00;101285.19;5009208;28;20228;-69
2021/03/26 00:24:30;;;;;;;76.60;38.17;;;;;;;6.05;100.00;101284.59;4994712;28;20216;-68
2021/03/26 00:26:56;;;;;;;85.00;40.37;;;;;;;6.11;100.00;101291.78;5011454;28;20281;-68
2021/03/26 00:29:26;;;;;;;93.17;41.50;;;;;;;6.17;100.00;101285.44;4977944;28;20184;-69
2021/03/26 00:31:52;;;;;;;97.07;43.03;;;;;;;6.11;100.00;101286.38;5008987;28;20229;-68
2021/03/26 00:34:20;;;;;;;86.47;40.83;;;;;;;6.03;100.00;101292.09;5010332;28;20243;-69
2021/03/26 00:36:48;;;;;;;87.87;41.97;;;;;;;6.01;100.00;101279.91;4993324;28;20247;-68
2021/03/26 00:39:13;;;;;;;90.87;40.87;;;;;;;5.91;100.00;101285.81;5010273;28;20232;-68
2021/03/26 00:41:39;;;;;;;77.33;38.30;;;;;;;5.78;100.00;101290.53;5010255;28;20733;-68
2021/03/26 00:44:05;;;;;;;83.27;38.63;;;;;;;5.71;100.00;101286.25;4993766;28;20215;-68
2021/03/26 00:46:33;;;;;;;78.50;37.80;;;;;;;5.66;100.00;101291.47;4997099;28;20253;-68
2021/03/26 00:49:01;;;;;;;78.20;37.77;;;;;;;5.60;100.00;101292.38;4990670;28;20181;-68
2021/03/26 00:51:31;;;;;;;91.53;39.73;;;;;;;5.60;100.00;101298.59;4988905;28;20253;-68
2021/03/26 00:53:57;;;;;;;86.03;38.20;;;;;;;5.59;100.00;101291.56;4966384;28;20189;-68
2021/03/26 00:56:22;;;;;;;85.70;40.23;;;;;;;5.62;100.00;101284.91;4992741;28;20251;-68
2021/03/26 00:58:48;;;;;;;76.67;38.17;;;;;;;5.54;100.00;101282.50;5010252;28;20240;-69
2021/03/26 01:01:16;;;;;;;84.63;39.67;;;;;;;5.51;100.00;101280.25;5009100;28;20233;-68
2021/03/26 01:03:42;;;;;;;78.33;39.73;;;;;;;5.42;100.00;101284.28;5009075;28;20241;-68
2021/03/26 01:06:08;;;;;;;82.87;38.93;;;;;;;5.37;100.00;101286.84;5009289;28;20355;-68
2021/03/26 01:08:37;;;;;;;85.17;38.73;;;;;;;5.36;100.00;101274.41;5009882;28;20196;-68
2021/03/26 01:11:09;;;;;;;78.53;38.00;;;;;;;5.33;100.00;101274.88;5008993;28;20235;-69
2021/03/26 01:13:35;;;;;;;75.43;38.53;;;;;;;5.37;100.00;101282.28;4976276;28;20193;-67
2021/03/26 01:16:00;;;;;;;77.60;37.40;;;;;;;5.27;100.00;101275.75;5009015;28;20287;-67
2021/03/26 01:18:34;;;;;;;75.97;35.73;;;;;;;5.32;100.00;101267.84;4977372;28;20323;-67
2021/03/26 01:21:04;;;;;;;74.03;35.70;;;;;;;5.36;100.00;101269.03;5009150;28;20228;-68
2021/03/26 01:23:31;;;;;;;71.73;33.80;;;;;;;5.43;100.00;101270.59;5008650;28;20231;-68
2021/03/26 01:25:57;;;;;;;76.70;35.70;;;;;;;5.36;100.00;101274.41;4992746;28;20248;-68
2021/03/26 01:28:45;;;;;;;84.17;37.37;;;;;;;5.46;100.00;101266.66;5005060;28;20800;-69
2021/03/26 01:31:31;;;;;;;94.03;39.13;;;;;;;5.39;100.00;101269.41;5008701;28;20233;-68
2021/03/26 01:33:59;;;;;;;102.40;41.73;;;;;;;5.28;100.00;101258.56;4992315;28;20256;-68
2021/03/26 01:36:32;;;;;;;97.07;41.83;;;;;;;5.19;100.00;101256.38;5008762;28;20227;-69
2021/03/26 01:39:03;;;;;;;93.70;40.97;;;;;;;5.20;100.00;101258.88;5009308;28;20230;-70
2021/03/26 01:41:39;;;;;;;92.27;40.33;;;;;;;5.12;100.00;101261.81;4976402;28;20233;-67
2021/03/26 01:44:12;;;;;;;99.23;39.93;;;;;;;4.97;100.00;101270.50;4979641;28;20274;-67
2021/03/26 01:46:38;;;;;;;84.73;38.07;;;;;;;4.93;100.00;101262.03;5008612;28;20232;-68
2021/03/26 01:49:04;;;;;;;85.27;38.57;;;;;;;4.81;100.00;101268.34;4992841;28;20235;-68
2021/03/26 01:51:35;;;;;;;84.77;38.50;;;;;;;4.76;100.00;101260.09;5009823;28;20813;-68
2021/03/26 01:54:08;;;;;;;84.23;36.87;;;;;;;4.76;100.00;101254.72;5009088;28;20264;-69
2021/03/26 01:56:35;;;;;;;85.57;37.03;;;;;;;4.73;100.00;101263.25;4977096;28;20223;-68
2021/03/26 01:59:20;;;;;;;83.03;34.80;;;;;;;4.67;100.00;101250.66;4966311;28;20193;-68
2021/03/26 02:01:56;;;;;;;73.97;34.30;;;;;;;4.61;100.00;101248.84;5007871;28;20225;-67
2021/03/26 02:04:29;;;;;;;71.37;35.43;;;;;;;4.57;100.00;101255.72;4993153;28;20209;-68
2021/03/26 02:07:02;;;;;;;79.37;34.53;;;;;;;4.56;100.00;101248.72;4993244;28;20221;-67
2021/03/26 02:09:34;;;;;;;74.10;35.13;;;;;;;4.49;100.00;101250.63;4997119;28;20288;-68
2021/03/26 02:12:04;;;;;;;67.00;33.60;;;;;;;4.58;100.00;101249.31;4962403;28;20956;-68
2021/03/26 02:14:37;;;;;;;73.60;33.47;;;;;;;4.52;100.00;101247.47;5017913;28;20774;-69
2021/03/26 02:17:03;;;;;;;63.43;32.53;;;;;;;4.46;100.00;101248.34;4982558;28;20648;-68
2021/03/26 02:19:55;;;;;;;58.03;27.17;;;;;;;4.36;100.00;101256.09;4972986;28;20195;-68
2021/03/26 02:22:22;;;;;;;45.53;24.00;;;;;;;4.30;100.00;101259.66;4981517;28;20279;-68
2021/03/26 02:24:49;;;;;;;43.57;24.00;;;;;;;4.39;100.00;101261.00;4966812;28;20213;-68
2021/03/26 02:27:18;;;;;;;46.27;26.10;;;;;;;4.53;100.00;101254.50;4998478;28;20608;-67
2021/03/26 02:29:44;;;;;;;52.90;25.13;;;;;;;4.57;100.00;101256.53;4998894;28;20288;-69
2021/03/26 02:32:34;;;;;;;48.07;25.17;;;;;;;4.59;100.00;101259.00;4999932;28;20259;-70
2021/03/26 02:35:56;;;;;;;54.77;27.50;;;;;;;4.55;100.00;101244.34;4999303;28;20185;-69
2021/03/26 02:38:35;;;;;;;57.57;26.47;;;;;;;4.29;100.00;101249.94;4939605;29;20222;-66
2021/03/26 02:41:19;;;;;;;53.27;27.10;;;;;;;4.28;100.00;101259.03;4980882;28;20224;-67
2021/03/26 02:44:26;;;;;;;57.27;28.40;;;;;;;4.26;100.00;101244.16;4982097;28;20239;-67
2021/03/26 02:47:08;;;;;;;51.47;25.87;;;;;;;4.33;100.00;101253.00;4998611;28;20228;-67
2021/03/26 02:49:59;;;;;;;50.57;27.30;;;;;;;4.26;100.00;101247.66;4983708;28;20188;-68
2021/03/26 02:52:43;;;;;;;63.90;29.27;;;;;;;4.25;100.00;101254.09;5001084;28;20228;-69
2021/03/26 02:55:35;;;;;;;61.97;29.67;;;;;;;4.13;100.00;101251.50;4967373;28;20184;-68
2021/03/26 02:58:10;;;;;;;56.07;28.00;;;;;;;4.08;100.00;101256.69;4983472;28;20185;-69
2021/03/26 03:00:37;;;;;;;51.77;26.13;;;;;;;4.19;100.00;101256.00;4985008;28;20228;-69
2021/03/26 03:03:03;;;;;;;46.43;24.73;;;;;;;4.24;100.00;101251.63;5026162;28;20662;-69
2021/03/26 03:05:40;;;;;;;40.87;22.30;;;;;;;4.16;100.00;101254.56;5034590;28;20236;-69
2021/03/26 03:08:14;;;;;;;51.50;26.47;;;;;;;4.26;100.00;101247.66;5003926;28;20188;-69
2021/03/26 03:11:07;;;;;;;56.97;27.10;;;;;;;4.26;100.00;101247.66;5003919;28;20220;-69
2021/03/26 03:13:53;;;;;;;78.43;32.03;;;;;;;4.30;100.00;101245.38;5006781;28;20177;-69
2021/03/26 03:16:45;;;;;;;85.30;35.03;;;;;;;4.23;100.00;101237.38;5002378;28;20235;-69
2021/03/26 03:19:29;;;;;;;87.17;33.90;;;;;;;4.26;100.00;101239.59;5018085;28;20193;-69
2021/03/26 03:22:06;;;;;;;96.00;33.43;;;;;;;4.27;100.00;101241.25;5015829;28;20259;-70
2021/03/26 03:24:38;;;;;;;67.43;29.20;;;;;;;4.19;100.00;101247.94;5001015;28;20215;-67
2021/03/26 03:27:17;;;;;;;57.90;27.73;;;;;;;4.02;100.00;101254.88;5030849;28;20228;-70
2021/03/26 03:29:56;;;;;;;45.13;23.50;;;;;;;4.08;100.00;101248.63;5031542;28;20191;-69
2021/03/26 03:33:06;;;;;;;44.83;23.43;;;;;;;3.99;100.00;101247.22;5005969;28;20251;-67
2021/03/26 03:35:59;;;;;;;45.60;24.13;;;;;;;3.96;100.00;101245.00;5011152;28;20763;-67
2021/03/26 03:38:40;;;;;;;41.43;22.87;;;;;;;3.87;100.00;101246.28;4996184;28;20197;-67
2021/03/26 03:41:24;;;;;;;42.83;23.07;;;;;;;3.80;100.00;101258.91;5010814;28;20315;-69
2021/03/26 03:43:58;;;;;;;47.83;24.73;;;;;;;3.66;100.00;101260.00;5010387;28;20212;-68
2021/03/26 03:46:50;;;;;;;50.03;24.93;;;;;;;3.73;100.00;101258.09;4979150;28;20228;-69
2021/03/26 03:49:39;;;;;;;48.67;24.30;;;;;;;3.70;100.00;101250.50;4997963;28;20189;-69
2021/03/26 03:52:25;;;;;;;43.93;23.20;;;;;;;3.79;100.00;101249.22;5010254;28;20224;-69
2021/03/26 03:55:01;;;;;;;51.60;27.00;;;;;;;4.07;100.00;101245.13;4995015;28;20207;-69
2021/03/26 03:57:47;;;;;;;53.00;25.37;;;;;;;4.32;100.00;101240.59;4997109;28;20220;-69
2021/03/26 04:00:19;;;;;;;44.67;24.07;;;;;;;4.39;100.00;101242.19;4979203;28;20177;-69
2021/03/26 04:03:12;;;;;;;52.07;25.30;;;;;;;4.32;100.00;101246.81;4995714;28;20227;-69
2021/03/26 04:05:45;;;;;;;52.73;26.07;;;;;;;4.42;100.00;101228.31;4994471;28;20797;-69
2021/03/26 04:08:45;;;;;;;48.47;24.57;;;;;;;4.51;100.00;101235.09;4982295;28;20489;-68
2021/03/26 04:11:34;;;;;;;45.20;24.33;;;;;;;4.44;100.00;101234.31;5010650;28;20233;-69
2021/03/26 04:14:23;;;;;;;48.63;25.63;;;;;;;4.46;100.00;101226.03;5011349;28;20174;-69
2021/03/26 04:16:52;;;;;;;52.93;27.67;;;;;;;4.41;100.00;101221.28;4963135;28;20228;-69
2021/03/26 04:19:20;;;;;;;48.43;25.30;;;;;;;4.31;100.00;101218.28;4994674;28;20185;-69
2021/03/26 04:22:01;;;;;;;50.80;26.23;;;;;;;4.13;100.00;101221.94;4996828;28;20456;-68
2021/03/26 04:25:15;;;;;;;52.97;26.40;;;;;;;4.05;100.00;101227.56;4983115;28;20216;-69
2021/03/26 04:28:07;;;;;;;48.87;25.43;;;;;;;4.09;100.00;101218.03;4998957;28;20212;-70
2021/03/26 04:30:49;;;;;;;53.67;25.57;;;;;;;4.04;100.00;101217.84;4965246;28;20730;-69
2021/03/26 04:33:29;;;;;;;56.77;27.90;;;;;;;4.02;100.00;101217.25;4981562;28;20271;-68
2021/03/26 04:35:55;;;;;;;51.20;25.17;;;;;;;4.09;100.00;101220.72;4977582;28;20788;-69
2021/03/26 04:38:46;;;;;;;52.97;26.03;;;;;;;4.02;100.00;101214.56;4995931;28;20188;-68
2021/03/26 04:41:30;;;;;;;48.53;25.03;;;;;;;3.85;100.00;101218.81;4994144;28;20332;-69
2021/03/26 04:44:00;;;;;;;47.87;25.07;;;;;;;4.04;100.00;101215.16;4995028;28;20584;-69
2021/03/26 04:46:48;;;;;;;50.27;25.70;;;;;;;4.11;100.00;101213.25;4993901;28;20217;-69
2021/03/26 04:49:28;;;;;;;56.97;27.20;;;;;;;4.05;100.00;101208.75;5011791;28;20721;-68
2021/03/26 04:52:16;;;;;;;56.97;26.33;;;;;;;4.01;100.00;101218.28;4974343;28;20257;-67
2021/03/26 04:55:02;;;;;;;55.50;26.77;;;;;;;3.74;100.00;101219.47;4991148;28;20189;-67
2021/03/26 04:58:03;;;;;;;48.07;25.80;;;;;;;3.67;100.00;101224.06;5010325;28;20224;-70
2021/03/26 05:00:59;;;;;;;53.03;26.40;;;;;;;3.68;100.00;101209.59;5001261;28;20260;-68
2021/03/26 05:03:31;;;;;;;56.40;27.20;;;;;;;3.82;100.00;101216.53;4991839;28;20185;-69
2021/03/26 05:06:11;;;;;;;62.90;28.97;;;;;;;3.94;100.00;101225.56;4979085;28;20236;-73
2021/03/26 05:08:44;;;;;;;61.63;28.17;;;;;;;3.87;100.00;101216.72;4979734;28;20259;-69
2021/03/26 05:11:29;;;;;;;60.87;28.10;;;;;;;4.02;100.00;101211.88;4997763;28;20232;-70
2021/03/26 05:14:00;;;;;;;68.17;29.53;;;;;;;4.00;100.00;101209.41;4989390;28;20234;-68
2021/03/26 05:16:51;;;;;;;61.60;28.50;;;;;;;3.92;100.00;101216.91;4987471;28;20236;-70
2021/03/26 05:20:04;;;;;;;62.33;29.93;;;;;;;3.72;100.00;101210.81;4966937;28;20318;-70
2021/03/26 05:22:48;;;;;;;64.67;29.20;;;;;;;3.93;100.00;101219.34;4975635;28;20226;-70
2021/03/26 05:25:38;;;;;;;80.47;34.00;;;;;;;3.97;100.00;101211.69;4947224;28;20233;-67
2021/03/26 05:28:26;;;;;;;73.10;33.83;;;;;;;3.95;100.00;101205.72;5000298;28;20185;-68
2021/03/26 05:31:26;;;;;;;70.40;31.80;;;;;;;3.87;100.00;101208.66;4992650;28;20743;-71
2021/03/26 05:33:54;;;;;;;68.43;30.37;;;;;;;3.96;100.00;101202.81;5011464;28;20200;-70
2021/03/26 05:36:40;;;;;;;66.90;30.67;;;;;;;4.00;100.00;101205.91;4978774;28;20984;-70
2021/03/26 05:39:36;;;;;;;77.57;32.43;;;;;;;3.99;100.00;101212.28;4970927;28;20186;-69
2021/03/26 05:42:29;;;;;;;77.63;31.80;;;;;;;3.98;100.00;101216.03;5016226;28;20247;-69
2021/03/26 05:45:24;;;;;;;70.80;32.23;;;;;;;4.06;100.00;101202.34;4996141;28;20278;-70
2021/03/26 05:48:24;;;;;;;77.57;32.27;;;;;;;4.11;100.00;101206.03;5026840;28;20215;-67
2021/03/26 05:50:55;;;;;;;76.47;33.90;;;;;;;3.96;100.00;101207.38;5023333;28;20229;-68
2021/03/26 05:54:01;;;;;;;77.17;32.53;;;;;;;4.17;100.00;101193.56;5020815;28;20184;-69
2021/03/26 05:57:09;;;;;;;75.53;33.47;;;;;;;4.23;100.00;101197.03;5028409;28;20220;-68
2021/03/26 05:59:38;;;;;;;85.67;36.40;;;;;;;4.38;100.00;101197.53;5029457;28;20592;-70
2021/03/26 06:02:26;;;;;;;85.63;36.40;;;;;;;4.48;100.00;101194.34;5028034;28;20756;-67
2021/03/26 06:05:19;;;;;;;76.23;34.17;;;;;;;4.60;100.00;101190.75;5030211;28;20226;-68
2021/03/26 06:08:06;;;;;;;77.83;33.73;;;;;;;4.71;100.00;101200.78;5030585;28;20235;-68
2021/03/26 06:11:14;;;;;;;72.07;33.20;;;;;;;4.67;100.00;101199.53;5029167;28;20618;-72
2021/03/26 06:14:22;;;;;;;74.77;39.00;;;;;;;4.71;100.00;101200.78;5004201;28;20297;-68
2021/03/26 06:17:52;;;;;;;69.23;36.10;;;;;;;4.98;100.00;101190.34;5017560;28;20634;-70
2021/03/26 06:21:05;;;;;;;58.23;31.23;;;;;;;5.09;100.00;101192.31;5009014;28;20231;-69
2021/03/26 06:24:18;;;;;;;54.50;29.17;;;;;;;5.18;100.00;101204.41;4990048;28;20229;-68
2021/03/26 06:27:12;;;;;;;52.20;29.40;;;;;;;5.32;100.00;101203.22;4967450;28;20224;-68
2021/03/26 06:29:50;;;;;;;53.17;29.53;;;;;;;5.53;100.00;101206.28;4994028;28;20546;-68
2021/03/26 06:32:54;;;;;;;49.13;28.37;;;;;;;5.69;100.00;101199.44;5008157;28;20220;-68
2021/03/26 06:35:27;;;;;;;41.83;27.53;;;;;;;5.60;100.00;101201.59;5005400;28;20221;-68
2021/03/26 06:38:13;;;;;;;44.73;29.30;;;;;;;5.78;100.00;101202.44;5006950;28;20216;-67
2021/03/26 06:40:50;;;;;;;46.50;28.93;;;;;;;5.97;100.00;101195.97;5007198;28;20307;-68
2021/03/26 06:44:06;;;;;;;39.23;26.40;;;;;;;6.12;100.00;101201.75;4992433;28;20554;-68
2021/03/26 06:46:32;;;;;;;38.47;25.60;;;;;;;6.22;100.00;101193.91;5005952;28;20232;-68
2021/03/26 06:49:10;;;;;;;35.67;25.80;;;;;;;6.31;100.00;101192.53;5010506;28;20268;-68
2021/03/26 06:51:59;;;;;;;36.90;25.40;;;;;;;6.45;100.00;101202.06;5010912;28;20240;-72
2021/03/26 06:54:36;;;;;;;38.73;26.97;;;;;;;6.59;100.00;101194.34;4965678;28;20181;-68
2021/03/26 06:57:26;;;;;;;41.30;27.47;;;;;;;6.69;100.00;101191.88;5012720;28;20228;-69
2021/03/26 07:00:23;;;;;;;37.40;26.83;;;;;;;6.94;100.00;101192.44;5017128;28;20186;-69
2021/03/26 07:03:13;;;;;;;34.97;25.57;;;;;;;6.99;100.00;101196.06;5016365;28;20596;-69
2021/03/26 07:05:45;;;;;;;50.33;30.47;;;;;;;7.12;100.00;101193.13;5017537;28;20232;-69
2021/03/26 07:08:23;;;;;;;55.43;33.50;;;;;;;7.25;100.00;101192.06;4983697;28;20189;-68
2021/03/26 07:10:53;;;;;;;52.53;34.73;;;;;;;7.55;100.00;101185.44;5004774;28;20225;-69
2021/03/26 07:13:22;;;;;;;65.27;36.97;;;;;;;7.77;100.00;101184.53;5012755;28;20203;-68
2021/03/26 07:16:09;;;;;;;60.37;37.10;;;;;;;7.89;100.00;101177.97;5013710;28;20233;-69
2021/03/26 07:19:07;;;;;;;58.90;37.27;;;;;;;8.15;100.00;101188.22;4993128;28;20201;-68
2021/03/26 07:21:39;;;;;;;63.00;37.07;;;;;;;8.32;100.00;101189.09;4993681;28;20248;-68
2021/03/26 07:24:28;;;;;;;59.30;38.13;;;;;;;8.45;100.00;101193.13;4992446;28;20214;-68
2021/03/26 07:27:02;;;;;;;61.53;37.23;;;;;;;8.68;100.00;101190.25;4981957;28;20213;-68
2021/03/26 07:29:38;;;;;;;56.37;36.97;;;;;;;8.75;100.00;101184.66;5012205;28;20208;-68
2021/03/26 07:32:18;;;;;;;50.93;34.57;;;;;;;9.11;100.00;101195.78;4995358;28;20732;-69
2021/03/26 07:34:53;;;;;;;51.43;34.80;;;;;;;9.21;100.00;101194.00;5012211;28;20204;-68
2021/03/26 07:37:33;;;;;;;49.43;34.33;;;;;;;9.26;100.00;101188.66;5012443;28;20227;-68
2021/03/26 07:40:31;;;;;;;47.57;32.60;;;;;;;9.31;100.00;101183.31;5013186;28;20208;-68
2021/03/26 07:43:17;;;;;;;45.83;32.27;;;;;;;9.58;100.00;101187.75;5010807;28;20209;-69
2021/03/26 07:46:16;;;;;;;47.43;31.97;;;;;;;9.70;100.00;101191.13;5011339;28;20264;-68
2021/03/26 07:49:02;;;;;;;45.90;32.23;;;;;;;9.79;100.00;101184.19;4981081;28;20200;-68
2021/03/26 07:51:48;;;;;;;42.17;30.90;;;;;;;10.01;100.00;101172.25;4979296;28;20332;-68
2021/03/26 07:54:52;;;;;;;41.40;30.33;;;;;;;10.06;100.00;101180.47;4995311;28;20612;-69
2021/03/26 07:58:03;;;;;;;38.07;28.47;;;;;;;10.33;100.00;101173.09;5012026;28;20224;-69
2021/03/26 08:00:33;;;;;;;36.90;28.07;;;;;;;10.35;100.00;101184.53;5001723;28;20229;-68
2021/03/26 08:03:40;;;;;;;36.23;28.70;;;;;;;10.35;100.00;101184.53;4994061;28;20201;-68
2021/03/26 08:06:43;;;;;;;37.03;28.07;;;;;;;10.60;100.00;101178.22;4950116;28;20250;-69
2021/03/26 08:09:31;;;;;;;37.53;28.67;;;;;;;10.79;100.00;101177.59;5012707;28;20717;-69
2021/03/26 08:12:10;;;;;;;35.07;26.50;;;;;;;10.66;100.00;101174.50;4995850;28;20638;-69
2021/03/26 08:15:17;;;;;;;32.10;25.93;;;;;;;10.81;100.00;101180.06;4997137;28;20224;-69
2021/03/26 08:17:50;;;;;;;35.83;27.17;;;;;;;10.98;100.00;101169.84;4949068;28;20278;-69
2021/03/26 08:20:24;;;;;;;36.03;26.03;;;;;;;10.91;100.00;101171.94;4996393;28;20193;-68
2021/03/26 08:23:07;;;;;;;32.53;24.90;;;;;;;11.09;100.00;101171.53;5002065;28;20244;-69
2021/03/26 08:25:47;;;;;;;35.53;25.00;;;;;;;11.24;100.00;101170.53;5030827;28;20311;-70
2021/03/26 08:28:39;;;;;;;32.27;24.40;;;;;;;11.30;100.00;101168.66;5000160;28;20188;-69
2021/03/26 08:31:14;;;;;;;32.03;25.53;;;;;;;11.32;100.00;101167.31;5015880;28;20282;-69
2021/03/26 08:34:18;;;;;;;29.27;24.57;;;;;;;11.29;100.00;101167.84;5029633;28;20309;-69
2021/03/26 08:37:05;;;;;;;28.20;23.87;;;;;;;11.50;100.00;101174.22;4982507;28;20231;-68
2021/03/26 08:39:48;;;;;;;29.40;23.80;;;;;;;11.50;100.00;101175.06;4999001;28;20188;-69
2021/03/26 08:42:15;;;;;;;29.30;23.43;;;;;;;11.67;100.00;101178.41;5029025;28;20232;-68
2021/03/26 08:44:41;;;;;;;30.13;23.13;;;;;;;11.75;100.00;101172.41;5031461;28;20227;-68
2021/03/26 08:47:13;;;;;;;28.50;21.33;;;;;;;11.86;97.97;101174.91;5013289;28;20713;-69
2021/03/26 08:50:17;;;;;;;28.10;22.87;;;;;;;12.16;96.20;101164.91;4997969;28;20234;-69
2021/03/26 08:53:04;;;;;;;25.30;21.63;;;;;;;12.14;96.81;101172.53;4914813;29;20281;-68
2021/03/26 08:55:56;;;;;;;25.30;20.50;;;;;;;12.76;93.80;101172.03;5007859;28;20671;-70
2021/03/26 08:58:37;;;;;;;22.80;19.03;;;;;;;12.47;89.52;101161.09;5030447;28;20543;-69
2021/03/26 09:01:14;;;;;;;27.03;20.87;;;;;;;12.68;91.09;101166.28;5029241;28;20338;-68
2021/03/26 09:04:08;;;;;;;23.97;18.93;;;;;;;12.56;87.74;101160.28;5030422;28;20682;-69
2021/03/26 09:07:00;;;;;;;21.70;16.80;;;;;;;12.56;85.82;101160.28;5012873;28;20299;-69
2021/03/26 09:09:58;;;;;;;19.63;15.57;;;;;;;12.59;84.21;101159.75;5029971;28;20203;-68
2021/03/26 09:12:55;;;;;;;18.67;15.73;;;;;;;12.78;83.39;101161.66;4975080;28;20270;-69
2021/03/26 09:15:30;;;;;;;16.77;14.13;;;;;;;12.69;81.73;101155.13;5029345;28;21132;-68
2021/03/26 09:18:43;;;;;;;20.03;15.73;;;;;;;12.82;81.33;101160.06;5013586;28;20211;-68
2021/03/26 09:21:30;;;;;;;18.83;15.53;;;;;;;13.04;80.60;101163.28;5002727;28;20224;-69
2021/03/26 09:24:28;;;;;;;19.97;16.20;;;;;;;13.05;80.65;101158.66;5014761;28;20188;-70
2021/03/26 09:26:57;;;;;;;18.43;15.77;;;;;;;13.28;78.27;101158.88;5029268;28;20228;-69
2021/03/26 09:29:32;;;;;;;19.00;15.47;;;;;;;13.51;76.45;101154.38;5013135;28;20275;-69
2021/03/26 09:32:12;;;;;;;19.07;15.33;;;;;;;14.04;76.06;101167.28;5027479;28;20234;-69
2021/03/26 09:34:40;;;;;;;17.73;14.83;;;;;;;13.89;73.34;101156.41;5029400;28;20204;-70
2021/03/26 09:37:29;;;;;;;18.67;14.73;;;;;;;13.52;72.82;101160.69;5007648;28;20239;-69
2021/03/26 09:39:58;;;;;;;17.67;14.13;;;;;;;13.71;74.53;101156.22;4990838;28;20181;-68
2021/03/26 09:42:37;;;;;;;18.90;14.90;;;;;;;13.86;71.60;101152.34;4988143;28;20240;-68
2021/03/26 09:45:25;;;;;;;21.43;15.33;;;;;;;13.94;71.24;101149.00;4957524;28;20733;-69
2021/03/26 09:48:18;;;;;;;15.73;13.67;;;;;;;13.63;67.87;101143.97;4989748;28;20182;-70
2021/03/26 09:51:17;;;;;;;16.87;14.40;;;;;;;13.51;68.62;101137.22;4988911;28;20222;-69
2021/03/26 09:53:45;;;;;;;18.93;15.27;;;;;;;13.64;67.94;101145.59;4964154;28;20917;-69
2021/03/26 09:56:32;;;;;;;18.60;15.57;;;;;;;13.51;68.07;101143.47;4988974;28;20221;-69
2021/03/26 09:59:06;;;;;;;18.53;15.93;;;;;;;13.04;70.84;101149.66;4989778;28;20260;-68
2021/03/26 10:01:41;;;;;;;18.23;16.00;;;;;;;13.19;70.31;101146.88;4973385;28;20308;-68
2021/03/26 10:04:12;;;;;;;20.60;16.20;;;;;;;13.28;70.53;101148.75;4972911;28;20220;-68
2021/03/26 10:06:53;;;;;;;19.70;15.70;;;;;;;13.10;70.17;101140.38;4973037;28;20360;-69
2021/03/26 10:09:41;;;;;;;19.97;16.90;;;;;;;13.08;71.54;101131.66;4973532;28;20187;-70
2021/03/26 10:12:13;;;;;;;19.57;16.57;;;;;;;13.25;70.97;101115.75;4974482;28;20236;-69
2021/03/26 10:14:58;;;;;;;21.67;17.37;;;;;;;13.29;71.51;101125.81;4973873;28;20190;-69
2021/03/26 10:17:46;;;;;;;20.80;17.13;;;;;;;13.55;70.69;101121.91;4990117;28;20233;-69
2021/03/26 10:20:38;;;;;;;21.47;17.33;;;;;;;13.71;71.06;101126.19;4957223;28;20213;-69
2021/03/26 10:23:16;;;;;;;19.73;17.07;;;;;;;14.12;68.23;101112.03;4982858;28;20206;-69
2021/03/26 10:26:00;;;;;;;20.93;17.17;;;;;;;14.31;67.40;101106.41;5009714;28;20298;-68
2021/03/26 10:28:31;;;;;;;22.07;18.33;;;;;;;14.38;67.15;101106.91;4995697;28;20189;-69
2021/03/26 10:31:11;;;;;;;19.20;16.67;;;;;;;14.31;66.15;101100.94;5012229;28;20229;-69
2021/03/26 10:34:07;;;;;;;20.53;17.90;;;;;;;14.25;67.60;101107.56;4996230;28;20785;-68
2021/03/26 10:37:11;;;;;;;20.10;17.80;;;;;;;13.93;65.77;101108.31;5011542;28;20236;-68
2021/03/26 10:39:48;;;;;;;20.90;18.23;;;;;;;14.36;64.76;101095.44;5012946;28;20192;-69
2021/03/26 10:42:44;;;;;;;21.73;18.63;;;;;;;14.50;65.24;101096.41;5011081;28;20705;-69
2021/03/26 10:45:28;;;;;;;20.93;17.90;;;;;;;14.54;61.96;101085.72;4995803;28;20212;-71
2021/03/26 10:48:08;;;;;;;21.40;17.97;;;;;;;14.50;63.44;101082.75;5012522;28;20246;-68
2021/03/26 10:51:08;;;;;;;22.77;19.27;;;;;;;14.27;65.11;101077.22;4996036;28;20611;-68
2021/03/26 10:53:39;;;;;;;23.50;19.90;;;;;;;14.77;67.02;101080.31;4983544;28;20181;-69
2021/03/26 10:56:11;;;;;;;23.37;19.53;;;;;;;15.72;61.67;101067.09;4979573;28;20268;-70
2021/03/26 10:58:49;;;;;;;22.10;19.65;;;;;;;15.86;60.33;101066.06;5012099;28;20188;-69
2021/03/26 11:01:18;;;;;;;19.98;17.60;;;;;;;15.58;59.44;101056.03;4980077;28;20244;-70
2021/03/26 11:03:58;;;;;;;19.45;17.20;;;;;;;16.45;56.40;101056.09;4979401;28;20196;-70
2021/03/26 11:06:29;;;;;;;18.13;16.23;;;;;;;16.20;55.00;101051.00;4996648;28;20233;-70
2021/03/26 11:09:23;;;;;;;17.73;15.65;;;;;;;16.55;53.27;101048.47;4996195;28;20189;-68
2021/03/26 11:12:00;;;;;;;21.00;17.00;;;;;;;15.80;55.47;101048.06;4999321;28;20229;-69
2021/03/26 11:14:52;;;;;;;18.65;16.65;;;;;;;15.71;56.04;101057.25;4983463;28;20201;-69
2021/03/26 11:17:20;;;;;;;19.65;17.35;;;;;;;15.31;56.15;101059.72;4997170;28;20616;-69
2021/03/26 11:20:12;;;;;;;19.02;17.00;;;;;;;15.05;57.19;101039.22;4996891;28;20212;-69
2021/03/26 11:22:46;;;;;;;21.02;18.08;;;;;;;15.24;56.86;101040.94;5010891;28;20225;-69
2021/03/26 11:25:21;;;;;;;19.95;17.13;;;;;;;15.32;56.81;101033.97;4979721;28;20665;-68
2021/03/26 11:27:52;;;;;;;18.63;16.55;;;;;;;15.36;58.11;101037.75;4979168;28;20192;-68
2021/03/26 11:30:27;;;;;;;20.92;17.33;;;;;;;15.40;57.05;101017.69;4987939;28;20197;-69
2021/03/26 11:33:03;;;;;;;19.67;17.55;;;;;;;15.33;56.66;101017.28;4971721;28;20204;-69
2021/03/26 11:35:32;;;;;;;18.42;16.38;;;;;;;14.98;57.40;101025.09;5004222;28;20249;-68
2021/03/26 11:37:59;;;;;;;19.73;16.85;;;;;;;14.79;58.38;101015.19;5002260;28;20186;-69
2021/03/26 11:40:37;;;;;;;18.50;16.50;;;;;;;15.16;58.81;101018.84;4991049;28;20181;-68
2021/03/26 11:43:23;;;;;;;16.50;14.87;;;;;;;14.80;57.21;101005.88;4993715;28;20898;-69
2021/03/26 11:45:55;;;;;;;16.93;15.13;;;;;;;15.21;56.38;100997.72;4978653;28;20354;-68
2021/03/26 11:48:42;;;;;;;18.43;15.23;;;;;;;15.11;56.08;101003.28;5011091;28;20766;-68
2021/03/26 11:51:29;;;;;;;18.02;15.73;;;;;;;14.97;57.43;100995.28;5010206;28;20628;-68
2021/03/26 11:53:57;;;;;;;17.25;14.82;;;;;;;15.08;57.51;101000.31;4994199;28;20677;-68
2021/03/26 11:56:38;;;;;;;18.38;15.80;;;;;;;15.88;55.39;100979.72;5010315;28;20630;-68
2021/03/26 11:59:36;;;;;;;18.30;15.52;;;;;;;15.87;54.88;100986.28;5012406;28;20607;-69
2021/03/26 12:02:07;;;;;;;18.13;15.70;;;;;;;15.80;55.21;100980.41;4993388;28;20248;-70
2021/03/26 12:04:37;;;;;;;17.77;15.88;;;;;;;16.14;55.25;100972.69;5011493;28;20220;-68
2021/03/26 12:07:17;;;;;;;17.40;15.05;;;;;;;16.32;51.22;100960.91;5010397;28;20221;-69
2021/03/26 12:09:48;;;;;;;17.08;14.77;;;;;;;16.13;53.26;100957.34;4977039;28;20196;-70
2021/03/26 12:12:30;;;;;;;18.38;15.23;;;;;;;16.00;54.00;100952.66;4989060;28;20232;-69
2021/03/26 12:15:00;;;;;;;16.43;14.03;;;;;;;15.95;52.29;100955.50;5005289;28;20181;-67